sensor_id;sensor_type;location;lat;lon;timestamp;P1;durP1;ratioP1;P2;durP2;ratioP2
15693;SDS011;7947;48.834;9.132;2023-11-21T00:01:42;0.70;;;0.50;;
15693;SDS011;7947;48.834;9.132;2023-11-21T00:04:52;2.70;;;0.70;;
15693;SDS011;7947;48.834;9.132;2023-11-21T00:08:00;1.93;;;0.93;;
15693;SDS011;7947;48.834;9.132;2023-11-21T00:11:03;3.70;;;0.70;;
15693;SDS011;7947;48.834;9.132;2023-11-21T00:14:08;2.83;;;0.70;;
15693;SDS011;7947;48.834;9.132;2023-11-21T00:17:13;2.40;;;0.87;;
15693;SDS011;7947;48.834;9.132;2023-11-21T00:20:18;2.27;;;0.80;;
15693;SDS011;7947;48.834;9.132;2023-11-21T00:23:25;1.27;;;0.60;;
15693;SDS011;7947;48.834;9.132;2023-11-21T00:26:30;2.50;;;1.00;;
15693;SDS011;7947;48.834;9.132;2023-11-21T00:29:39;1.80;;;0.83;;
15693;SDS011;7947;48.834;9.132;2023-11-21T00:32:43;3.43;;;1.00;;
15693;SDS011;7947;48.834;9.132;2023-11-21T00:35:46;3.47;;;1.00;;
15693;SDS011;7947;48.834;9.132;2023-11-21T00:38:50;0.83;;;0.67;;
15693;SDS011;7947;48.834;9.132;2023-11-21T00:41:53;1.00;;;0.77;;
15693;SDS011;7947;48.834;9.132;2023-11-21T00:44:56;1.87;;;0.70;;
15693;SDS011;7947;48.834;9.132;2023-11-21T00:47:59;0.73;;;0.50;;
15693;SDS011;7947;48.834;9.132;2023-11-21T00:51:02;1.83;;;0.70;;
15693;SDS011;7947;48.834;9.132;2023-11-21T00:54:09;0.67;;;0.40;;
15693;SDS011;7947;48.834;9.132;2023-11-21T00:57:12;1.23;;;0.73;;
15693;SDS011;7947;48.834;9.132;2023-11-21T01:00:15;4.33;;;0.90;;
15693;SDS011;7947;48.834;9.132;2023-11-21T01:03:19;1.70;;;0.93;;
15693;SDS011;7947;48.834;9.132;2023-11-21T01:06:23;1.83;;;0.60;;
15693;SDS011;7947;48.834;9.132;2023-11-21T01:09:27;2.80;;;0.60;;
15693;SDS011;7947;48.834;9.132;2023-11-21T01:12:31;5.43;;;0.83;;
15693;SDS011;7947;48.834;9.132;2023-11-21T01:15:34;1.17;;;0.80;;
15693;SDS011;7947;48.834;9.132;2023-11-21T01:18:37;5.87;;;1.00;;
15693;SDS011;7947;48.834;9.132;2023-11-21T01:21:40;1.33;;;0.90;;
15693;SDS011;7947;48.834;9.132;2023-11-21T01:24:45;4.40;;;1.00;;
15693;SDS011;7947;48.834;9.132;2023-11-21T01:27:47;1.23;;;0.70;;
15693;SDS011;7947;48.834;9.132;2023-11-21T01:30:50;1.70;;;0.70;;
15693;SDS011;7947;48.834;9.132;2023-11-21T01:33:54;2.87;;;0.87;;
15693;SDS011;7947;48.834;9.132;2023-11-21T01:36:57;1.60;;;0.67;;
15693;SDS011;7947;48.834;9.132;2023-11-21T01:40:01;1.80;;;0.83;;
15693;SDS011;7947;48.834;9.132;2023-11-21T01:43:07;0.60;;;0.60;;
15693;SDS011;7947;48.834;9.132;2023-11-21T01:46:10;1.40;;;0.60;;
15693;SDS011;7947;48.834;9.132;2023-11-21T01:49:13;1.37;;;0.70;;
15693;SDS011;7947;48.834;9.132;2023-11-21T01:52:19;1.03;;;0.70;;
15693;SDS011;7947;48.834;9.132;2023-11-21T01:55:24;1.20;;;0.70;;
15693;SDS011;7947;48.834;9.132;2023-11-21T01:58:30;0.90;;;0.60;;
15693;SDS011;7947;48.834;9.132;2023-11-21T02:01:33;0.50;;;0.30;;
15693;SDS011;7947;48.834;9.132;2023-11-21T02:04:37;0.43;;;0.43;;
15693;SDS011;7947;48.834;9.132;2023-11-21T02:07:40;2.50;;;0.77;;
15693;SDS011;7947;48.834;9.132;2023-11-21T02:10:45;1.37;;;0.60;;
15693;SDS011;7947;48.834;9.132;2023-11-21T02:13:49;0.83;;;0.70;;
15693;SDS011;7947;48.834;9.132;2023-11-21T02:16:55;1.43;;;0.60;;
15693;SDS011;7947;48.834;9.132;2023-11-21T02:19:59;0.67;;;0.50;;
15693;SDS011;7947;48.834;9.132;2023-11-21T02:23:04;0.93;;;0.70;;
15693;SDS011;7947;48.834;9.132;2023-11-21T02:26:07;2.30;;;0.60;;
15693;SDS011;7947;48.834;9.132;2023-11-21T02:29:11;0.50;;;0.40;;
15693;SDS011;7947;48.834;9.132;2023-11-21T02:32:14;3.00;;;0.70;;
15693;SDS011;7947;48.834;9.132;2023-11-21T02:35:20;0.87;;;0.50;;
15693;SDS011;7947;48.834;9.132;2023-11-21T02:38:25;1.40;;;0.80;;
15693;SDS011;7947;48.834;9.132;2023-11-21T02:41:28;0.67;;;0.40;;
15693;SDS011;7947;48.834;9.132;2023-11-21T02:44:31;1.80;;;0.50;;
15693;SDS011;7947;48.834;9.132;2023-11-21T02:47:34;0.40;;;0.40;;
15693;SDS011;7947;48.834;9.132;2023-11-21T02:50:37;2.23;;;0.70;;
15693;SDS011;7947;48.834;9.132;2023-11-21T02:53:42;0.50;;;0.40;;
15693;SDS011;7947;48.834;9.132;2023-11-21T02:56:45;1.63;;;0.83;;
15693;SDS011;7947;48.834;9.132;2023-11-21T02:59:48;3.13;;;0.60;;
15693;SDS011;7947;48.834;9.132;2023-11-21T03:02:51;2.07;;;0.73;;
15693;SDS011;7947;48.834;9.132;2023-11-21T03:05:54;2.63;;;0.60;;
15693;SDS011;7947;48.834;9.132;2023-11-21T03:08:58;1.07;;;0.57;;
15693;SDS011;7947;48.834;9.132;2023-11-21T03:12:01;0.53;;;0.37;;
15693;SDS011;7947;48.834;9.132;2023-11-21T03:15:05;1.00;;;0.43;;
15693;SDS011;7947;48.834;9.132;2023-11-21T03:18:08;1.30;;;0.37;;
15693;SDS011;7947;48.834;9.132;2023-11-21T03:21:11;0.53;;;0.43;;
15693;SDS011;7947;48.834;9.132;2023-11-21T03:24:15;0.93;;;0.47;;
15693;SDS011;7947;48.834;9.132;2023-11-21T03:27:21;2.40;;;0.60;;
15693;SDS011;7947;48.834;9.132;2023-11-21T03:30:23;0.93;;;0.30;;
15693;SDS011;7947;48.834;9.132;2023-11-21T03:33:26;1.17;;;0.60;;
15693;SDS011;7947;48.834;9.132;2023-11-21T03:36:30;0.77;;;0.43;;
15693;SDS011;7947;48.834;9.132;2023-11-21T03:39:34;0.70;;;0.50;;
15693;SDS011;7947;48.834;9.132;2023-11-21T03:42:37;1.50;;;0.40;;
15693;SDS011;7947;48.834;9.132;2023-11-21T03:45:41;0.37;;;0.37;;
15693;SDS011;7947;48.834;9.132;2023-11-21T03:48:44;1.07;;;0.57;;
15693;SDS011;7947;48.834;9.132;2023-11-21T03:51:47;2.17;;;0.57;;
15693;SDS011;7947;48.834;9.132;2023-11-21T03:54:51;0.47;;;0.27;;
15693;SDS011;7947;48.834;9.132;2023-11-21T03:57:54;3.13;;;0.57;;
15693;SDS011;7947;48.834;9.132;2023-11-21T04:00:58;1.40;;;0.43;;
15693;SDS011;7947;48.834;9.132;2023-11-21T04:04:01;0.40;;;0.33;;
15693;SDS011;7947;48.834;9.132;2023-11-21T04:07:04;0.90;;;0.30;;
15693;SDS011;7947;48.834;9.132;2023-11-21T04:10:09;0.60;;;0.40;;
15693;SDS011;7947;48.834;9.132;2023-11-21T04:13:14;1.73;;;0.77;;
15693;SDS011;7947;48.834;9.132;2023-11-21T04:16:17;1.77;;;1.20;;
15693;SDS011;7947;48.834;9.132;2023-11-21T04:19:21;1.93;;;0.70;;
15693;SDS011;7947;48.834;9.132;2023-11-21T04:22:24;0.70;;;0.50;;
15693;SDS011;7947;48.834;9.132;2023-11-21T04:25:28;0.60;;;0.40;;
15693;SDS011;7947;48.834;9.132;2023-11-21T04:28:31;0.90;;;0.60;;
15693;SDS011;7947;48.834;9.132;2023-11-21T04:31:34;5.97;;;2.87;;
15693;SDS011;7947;48.834;9.132;2023-11-21T04:34:37;2.10;;;1.47;;
15693;SDS011;7947;48.834;9.132;2023-11-21T04:37:40;2.33;;;0.70;;
15693;SDS011;7947;48.834;9.132;2023-11-21T04:40:44;0.47;;;0.30;;
15693;SDS011;7947;48.834;9.132;2023-11-21T04:43:47;0.77;;;0.53;;
15693;SDS011;7947;48.834;9.132;2023-11-21T04:46:51;2.87;;;0.67;;
15693;SDS011;7947;48.834;9.132;2023-11-21T04:49:54;0.60;;;0.50;;
15693;SDS011;7947;48.834;9.132;2023-11-21T04:52:57;0.57;;;0.47;;
15693;SDS011;7947;48.834;9.132;2023-11-21T04:56:01;1.13;;;0.30;;
15693;SDS011;7947;48.834;9.132;2023-11-21T04:59:04;1.27;;;0.63;;
15693;SDS011;7947;48.834;9.132;2023-11-21T05:02:07;1.10;;;0.50;;
15693;SDS011;7947;48.834;9.132;2023-11-21T05:05:20;0.53;;;0.40;;
15693;SDS011;7947;48.834;9.132;2023-11-21T05:08:24;1.00;;;0.50;;
15693;SDS011;7947;48.834;9.132;2023-11-21T05:11:29;0.50;;;0.40;;
15693;SDS011;7947;48.834;9.132;2023-11-21T05:14:32;1.57;;;0.73;;
15693;SDS011;7947;48.834;9.132;2023-11-21T05:17:35;1.83;;;0.60;;
15693;SDS011;7947;48.834;9.132;2023-11-21T05:20:38;0.30;;;0.30;;
15693;SDS011;7947;48.834;9.132;2023-11-21T05:23:42;0.73;;;0.40;;
15693;SDS011;7947;48.834;9.132;2023-11-21T05:26:46;0.37;;;0.33;;
15693;SDS011;7947;48.834;9.132;2023-11-21T05:29:49;0.40;;;0.30;;
15693;SDS011;7947;48.834;9.132;2023-11-21T05:32:52;1.17;;;0.40;;
15693;SDS011;7947;48.834;9.132;2023-11-21T05:35:55;2.67;;;0.70;;
15693;SDS011;7947;48.834;9.132;2023-11-21T05:38:58;0.40;;;0.40;;
15693;SDS011;7947;48.834;9.132;2023-11-21T05:42:02;0.40;;;0.40;;
15693;SDS011;7947;48.834;9.132;2023-11-21T05:45:06;1.23;;;0.87;;
15693;SDS011;7947;48.834;9.132;2023-11-21T05:48:13;1.60;;;0.73;;
15693;SDS011;7947;48.834;9.132;2023-11-21T05:51:17;1.57;;;0.90;;
15693;SDS011;7947;48.834;9.132;2023-11-21T05:54:20;0.90;;;0.70;;
15693;SDS011;7947;48.834;9.132;2023-11-21T05:57:24;2.10;;;0.77;;
15693;SDS011;7947;48.834;9.132;2023-11-21T06:00:27;1.40;;;0.73;;
15693;SDS011;7947;48.834;9.132;2023-11-21T06:03:30;1.03;;;0.77;;
15693;SDS011;7947;48.834;9.132;2023-11-21T06:06:34;1.43;;;0.73;;
15693;SDS011;7947;48.834;9.132;2023-11-21T06:09:38;0.73;;;0.60;;
15693;SDS011;7947;48.834;9.132;2023-11-21T06:12:43;1.27;;;0.77;;
15693;SDS011;7947;48.834;9.132;2023-11-21T06:15:46;1.27;;;0.53;;
15693;SDS011;7947;48.834;9.132;2023-11-21T06:18:49;0.73;;;0.63;;
15693;SDS011;7947;48.834;9.132;2023-11-21T06:21:52;0.93;;;0.47;;
15693;SDS011;7947;48.834;9.132;2023-11-21T06:24:55;2.20;;;0.70;;
15693;SDS011;7947;48.834;9.132;2023-11-21T06:28:00;0.50;;;0.50;;
15693;SDS011;7947;48.834;9.132;2023-11-21T06:31:03;0.67;;;0.50;;
15693;SDS011;7947;48.834;9.132;2023-11-21T06:34:07;0.50;;;0.50;;
15693;SDS011;7947;48.834;9.132;2023-11-21T06:37:11;1.27;;;0.60;;
15693;SDS011;7947;48.834;9.132;2023-11-21T06:40:14;0.90;;;0.50;;
15693;SDS011;7947;48.834;9.132;2023-11-21T06:43:18;1.53;;;0.50;;
15693;SDS011;7947;48.834;9.132;2023-11-21T06:46:23;1.00;;;0.60;;
15693;SDS011;7947;48.834;9.132;2023-11-21T06:49:26;0.57;;;0.50;;
15693;SDS011;7947;48.834;9.132;2023-11-21T06:52:29;2.73;;;0.60;;
15693;SDS011;7947;48.834;9.132;2023-11-21T06:55:33;0.60;;;0.40;;
15693;SDS011;7947;48.834;9.132;2023-11-21T06:58:38;1.23;;;0.50;;
15693;SDS011;7947;48.834;9.132;2023-11-21T07:01:42;0.67;;;0.50;;
15693;SDS011;7947;48.834;9.132;2023-11-21T07:04:46;0.80;;;0.50;;
15693;SDS011;7947;48.834;9.132;2023-11-21T07:07:49;2.37;;;1.23;;
15693;SDS011;7947;48.834;9.132;2023-11-21T07:10:52;2.90;;;1.00;;
15693;SDS011;7947;48.834;9.132;2023-11-21T07:13:56;2.70;;;1.10;;
15693;SDS011;7947;48.834;9.132;2023-11-21T07:16:59;1.87;;;1.03;;
15693;SDS011;7947;48.834;9.132;2023-11-21T07:20:03;1.30;;;0.97;;
15693;SDS011;7947;48.834;9.132;2023-11-21T07:23:08;1.27;;;0.90;;
15693;SDS011;7947;48.834;9.132;2023-11-21T07:26:11;3.93;;;1.20;;
15693;SDS011;7947;48.834;9.132;2023-11-21T07:29:16;4.57;;;1.10;;
15693;SDS011;7947;48.834;9.132;2023-11-21T07:32:19;1.90;;;0.90;;
15693;SDS011;7947;48.834;9.132;2023-11-21T07:35:22;1.67;;;0.77;;
15693;SDS011;7947;48.834;9.132;2023-11-21T07:38:26;2.10;;;1.03;;
15693;SDS011;7947;48.834;9.132;2023-11-21T07:41:29;1.20;;;0.90;;
15693;SDS011;7947;48.834;9.132;2023-11-21T07:44:34;4.07;;;1.03;;
15693;SDS011;7947;48.834;9.132;2023-11-21T07:47:36;2.00;;;1.10;;
15693;SDS011;7947;48.834;9.132;2023-11-21T07:50:40;2.63;;;1.33;;
15693;SDS011;7947;48.834;9.132;2023-11-21T07:53:43;2.93;;;1.50;;
15693;SDS011;7947;48.834;9.132;2023-11-21T07:56:46;3.70;;;1.37;;
15693;SDS011;7947;48.834;9.132;2023-11-21T07:59:51;5.77;;;1.53;;
15693;SDS011;7947;48.834;9.132;2023-11-21T08:02:55;5.27;;;1.47;;
15693;SDS011;7947;48.834;9.132;2023-11-21T08:05:58;3.20;;;1.33;;
15693;SDS011;7947;48.834;9.132;2023-11-21T08:09:02;1.97;;;1.20;;
15693;SDS011;7947;48.834;9.132;2023-11-21T08:12:05;2.07;;;1.63;;
15693;SDS011;7947;48.834;9.132;2023-11-21T08:15:10;2.23;;;1.50;;
15693;SDS011;7947;48.834;9.132;2023-11-21T08:18:13;4.33;;;2.37;;
15693;SDS011;7947;48.834;9.132;2023-11-21T08:21:17;2.33;;;1.50;;
15693;SDS011;7947;48.834;9.132;2023-11-21T08:24:21;2.07;;;1.30;;
15693;SDS011;7947;48.834;9.132;2023-11-21T08:27:24;2.67;;;1.10;;
15693;SDS011;7947;48.834;9.132;2023-11-21T08:30:28;2.23;;;1.30;;
15693;SDS011;7947;48.834;9.132;2023-11-21T08:33:31;1.20;;;0.73;;
15693;SDS011;7947;48.834;9.132;2023-11-21T08:36:34;1.83;;;0.63;;
15693;SDS011;7947;48.834;9.132;2023-11-21T08:39:37;1.53;;;0.83;;
15693;SDS011;7947;48.834;9.132;2023-11-21T08:42:40;1.73;;;0.90;;
15693;SDS011;7947;48.834;9.132;2023-11-21T08:45:45;1.37;;;0.70;;
15693;SDS011;7947;48.834;9.132;2023-11-21T08:48:48;2.10;;;0.87;;
15693;SDS011;7947;48.834;9.132;2023-11-21T08:51:53;1.20;;;0.90;;
15693;SDS011;7947;48.834;9.132;2023-11-21T08:54:57;1.10;;;0.83;;
15693;SDS011;7947;48.834;9.132;2023-11-21T08:58:04;0.93;;;0.80;;
15693;SDS011;7947;48.834;9.132;2023-11-21T09:01:09;1.23;;;0.80;;
15693;SDS011;7947;48.834;9.132;2023-11-21T09:04:13;0.50;;;0.50;;
15693;SDS011;7947;48.834;9.132;2023-11-21T09:07:16;1.87;;;1.07;;
15693;SDS011;7947;48.834;9.132;2023-11-21T09:10:22;3.10;;;1.70;;
15693;SDS011;7947;48.834;9.132;2023-11-21T09:13:27;1.77;;;1.00;;
15693;SDS011;7947;48.834;9.132;2023-11-21T09:16:32;1.80;;;0.93;;
15693;SDS011;7947;48.834;9.132;2023-11-21T09:19:35;1.73;;;0.93;;
15693;SDS011;7947;48.834;9.132;2023-11-21T09:22:38;0.70;;;0.60;;
15693;SDS011;7947;48.834;9.132;2023-11-21T09:25:42;1.03;;;0.93;;
15693;SDS011;7947;48.834;9.132;2023-11-21T09:28:47;0.57;;;0.53;;
15693;SDS011;7947;48.834;9.132;2023-11-21T09:31:52;0.52;;;0.52;;
15693;SDS011;7947;48.834;9.132;2023-11-21T09:34:56;3.20;;;0.90;;
15693;SDS011;7947;48.834;9.132;2023-11-21T09:38:00;1.20;;;1.00;;
15693;SDS011;7947;48.834;9.132;2023-11-21T09:41:08;1.50;;;0.80;;
15693;SDS011;7947;48.834;9.132;2023-11-21T09:44:18;3.20;;;0.90;;
15693;SDS011;7947;48.834;9.132;2023-11-21T09:47:31;1.47;;;0.80;;
15693;SDS011;7947;48.834;9.132;2023-11-21T09:50:37;1.30;;;0.87;;
15693;SDS011;7947;48.834;9.132;2023-11-21T09:53:40;2.27;;;0.90;;
15693;SDS011;7947;48.834;9.132;2023-11-21T09:56:46;1.03;;;0.57;;
15693;SDS011;7947;48.834;9.132;2023-11-21T09:59:51;0.90;;;0.47;;
15693;SDS011;7947;48.834;9.132;2023-11-21T10:02:59;0.80;;;0.50;;
15693;SDS011;7947;48.834;9.132;2023-11-21T10:06:04;1.03;;;0.33;;
15693;SDS011;7947;48.834;9.132;2023-11-21T10:09:09;0.53;;;0.33;;
15693;SDS011;7947;48.834;9.132;2023-11-21T10:12:13;0.63;;;0.50;;
15693;SDS011;7947;48.834;9.132;2023-11-21T10:15:17;1.37;;;0.63;;
15693;SDS011;7947;48.834;9.132;2023-11-21T10:18:22;0.67;;;0.47;;
15693;SDS011;7947;48.834;9.132;2023-11-21T10:21:28;1.03;;;0.50;;
15693;SDS011;7947;48.834;9.132;2023-11-21T10:24:31;2.63;;;0.40;;
15693;SDS011;7947;48.834;9.132;2023-11-21T10:27:46;0.40;;;0.40;;
15693;SDS011;7947;48.834;9.132;2023-11-21T10:30:52;0.97;;;0.60;;
15693;SDS011;7947;48.834;9.132;2023-11-21T10:33:57;0.50;;;0.40;;
15693;SDS011;7947;48.834;9.132;2023-11-21T10:37:16;0.80;;;0.70;;
15693;SDS011;7947;48.834;9.132;2023-11-21T10:40:20;1.10;;;0.70;;
15693;SDS011;7947;48.834;9.132;2023-11-21T10:43:24;0.87;;;0.63;;
15693;SDS011;7947;48.834;9.132;2023-11-21T10:46:28;0.83;;;0.53;;
15693;SDS011;7947;48.834;9.132;2023-11-21T10:49:33;2.73;;;0.70;;
15693;SDS011;7947;48.834;9.132;2023-11-21T10:52:39;1.40;;;0.73;;
15693;SDS011;7947;48.834;9.132;2023-11-21T10:55:45;1.53;;;0.70;;
15693;SDS011;7947;48.834;9.132;2023-11-21T10:58:48;0.60;;;0.53;;
15693;SDS011;7947;48.834;9.132;2023-11-21T11:01:52;1.97;;;0.50;;
15693;SDS011;7947;48.834;9.132;2023-11-21T11:04:57;1.27;;;0.60;;
15693;SDS011;7947;48.834;9.132;2023-11-21T11:08:04;1.23;;;1.13;;
15693;SDS011;7947;48.834;9.132;2023-11-21T11:11:08;0.50;;;0.40;;
15693;SDS011;7947;48.834;9.132;2023-11-21T11:14:12;0.88;;;0.50;;
15693;SDS011;7947;48.834;9.132;2023-11-21T11:17:16;0.80;;;0.60;;
15693;SDS011;7947;48.834;9.132;2023-11-21T11:20:23;0.97;;;0.60;;
15693;SDS011;7947;48.834;9.132;2023-11-21T11:23:35;1.50;;;0.60;;
15693;SDS011;7947;48.834;9.132;2023-11-21T11:26:50;0.68;;;0.60;;
15693;SDS011;7947;48.834;9.132;2023-11-21T11:30:01;0.47;;;0.40;;
15693;SDS011;7947;48.834;9.132;2023-11-21T11:33:16;1.05;;;0.60;;
15693;SDS011;7947;48.834;9.132;2023-11-21T11:36:40;0.82;;;0.82;;
15693;SDS011;7947;48.834;9.132;2023-11-21T11:39:51;1.60;;;0.90;;
15693;SDS011;7947;48.834;9.132;2023-11-21T11:42:56;0.75;;;0.57;;
15693;SDS011;7947;48.834;9.132;2023-11-21T11:46:02;0.65;;;0.60;;
15693;SDS011;7947;48.834;9.132;2023-11-21T11:49:06;0.80;;;0.68;;
15693;SDS011;7947;48.834;9.132;2023-11-21T11:55:36;1.90;;;1.23;;
15693;SDS011;7947;48.834;9.132;2023-11-21T11:58:39;1.20;;;0.90;;
15693;SDS011;7947;48.834;9.132;2023-11-21T12:01:44;1.02;;;0.60;;
15693;SDS011;7947;48.834;9.132;2023-11-21T12:04:49;1.10;;;0.70;;
15693;SDS011;7947;48.834;9.132;2023-11-21T12:07:54;0.60;;;0.60;;
15693;SDS011;7947;48.834;9.132;2023-11-21T12:10:58;0.85;;;0.50;;
15693;SDS011;7947;48.834;9.132;2023-11-21T12:14:03;0.80;;;0.50;;
15693;SDS011;7947;48.834;9.132;2023-11-21T12:17:08;0.32;;;0.32;;
15693;SDS011;7947;48.834;9.132;2023-11-21T12:20:11;0.50;;;0.50;;
15693;SDS011;7947;48.834;9.132;2023-11-21T12:23:20;0.73;;;0.40;;
15693;SDS011;7947;48.834;9.132;2023-11-21T12:26:24;0.65;;;0.47;;
15693;SDS011;7947;48.834;9.132;2023-11-21T12:29:27;0.75;;;0.65;;
15693;SDS011;7947;48.834;9.132;2023-11-21T12:32:31;0.60;;;0.53;;
15693;SDS011;7947;48.834;9.132;2023-11-21T12:35:34;0.90;;;0.70;;
15693;SDS011;7947;48.834;9.132;2023-11-21T12:38:39;1.23;;;0.68;;
15693;SDS011;7947;48.834;9.132;2023-11-21T12:41:43;0.70;;;0.70;;
15693;SDS011;7947;48.834;9.132;2023-11-21T12:44:47;1.17;;;1.08;;
15693;SDS011;7947;48.834;9.132;2023-11-21T12:47:50;2.17;;;0.80;;
15693;SDS011;7947;48.834;9.132;2023-11-21T12:50:54;0.80;;;0.80;;
15693;SDS011;7947;48.834;9.132;2023-11-21T12:53:58;1.45;;;1.35;;
15693;SDS011;7947;48.834;9.132;2023-11-21T12:57:02;1.77;;;0.97;;
15693;SDS011;7947;48.834;9.132;2023-11-21T13:00:10;1.05;;;0.98;;
15693;SDS011;7947;48.834;9.132;2023-11-21T13:03:19;1.27;;;0.40;;
15693;SDS011;7947;48.834;9.132;2023-11-21T13:06:27;0.25;;;0.20;;
15693;SDS011;7947;48.834;9.132;2023-11-21T13:09:36;0.10;;;0.10;;
15693;SDS011;7947;48.834;9.132;2023-11-21T13:12:42;1.83;;;0.40;;
15693;SDS011;7947;48.834;9.132;2023-11-21T13:15:49;0.65;;;0.30;;
15693;SDS011;7947;48.834;9.132;2023-11-21T13:18:54;0.82;;;0.40;;
15693;SDS011;7947;48.834;9.132;2023-11-21T13:21:56;1.67;;;0.70;;
15693;SDS011;7947;48.834;9.132;2023-11-21T13:25:01;0.40;;;0.40;;
15693;SDS011;7947;48.834;9.132;2023-11-21T13:28:08;0.77;;;0.50;;
15693;SDS011;7947;48.834;9.132;2023-11-21T13:31:12;2.23;;;0.50;;
15693;SDS011;7947;48.834;9.132;2023-11-21T13:34:27;1.40;;;0.93;;
15693;SDS011;7947;48.834;9.132;2023-11-21T13:37:34;1.53;;;0.70;;
15693;SDS011;7947;48.834;9.132;2023-11-21T13:40:40;0.95;;;0.77;;
15693;SDS011;7947;48.834;9.132;2023-11-21T13:43:47;1.10;;;1.00;;
15693;SDS011;7947;48.834;9.132;2023-11-21T13:46:58;0.63;;;0.60;;
15693;SDS011;7947;48.834;9.132;2023-11-21T13:50:01;3.80;;;0.73;;
15693;SDS011;7947;48.834;9.132;2023-11-21T13:53:05;2.23;;;0.97;;
15693;SDS011;7947;48.834;9.132;2023-11-21T13:56:19;1.33;;;0.83;;
15693;SDS011;7947;48.834;9.132;2023-11-21T13:59:26;1.13;;;1.03;;
15693;SDS011;7947;48.834;9.132;2023-11-21T14:02:31;1.37;;;0.80;;
15693;SDS011;7947;48.834;9.132;2023-11-21T14:05:41;0.87;;;0.87;;
15693;SDS011;7947;48.834;9.132;2023-11-21T14:08:44;1.10;;;0.93;;
15693;SDS011;7947;48.834;9.132;2023-11-21T14:11:51;1.45;;;0.82;;
15693;SDS011;7947;48.834;9.132;2023-11-21T14:14:57;1.65;;;1.00;;
15693;SDS011;7947;48.834;9.132;2023-11-21T14:18:00;1.58;;;1.10;;
15693;SDS011;7947;48.834;9.132;2023-11-21T14:21:06;1.20;;;0.90;;
15693;SDS011;7947;48.834;9.132;2023-11-21T14:24:12;2.08;;;1.42;;
15693;SDS011;7947;48.834;9.132;2023-11-21T14:27:16;2.33;;;1.10;;
15693;SDS011;7947;48.834;9.132;2023-11-21T14:30:19;2.10;;;0.83;;
15693;SDS011;7947;48.834;9.132;2023-11-21T14:33:24;1.00;;;0.90;;
15693;SDS011;7947;48.834;9.132;2023-11-21T14:36:26;2.13;;;1.23;;
15693;SDS011;7947;48.834;9.132;2023-11-21T14:39:29;1.00;;;0.80;;
15693;SDS011;7947;48.834;9.132;2023-11-21T14:42:37;1.73;;;1.03;;
15693;SDS011;7947;48.834;9.132;2023-11-21T14:45:41;1.27;;;0.80;;
15693;SDS011;7947;48.834;9.132;2023-11-21T14:48:44;2.67;;;0.90;;
15693;SDS011;7947;48.834;9.132;2023-11-21T14:51:54;1.55;;;0.82;;
15693;SDS011;7947;48.834;9.132;2023-11-21T14:55:04;0.77;;;0.77;;
15693;SDS011;7947;48.834;9.132;2023-11-21T14:58:28;1.40;;;0.80;;
15693;SDS011;7947;48.834;9.132;2023-11-21T15:01:31;1.17;;;0.90;;
15693;SDS011;7947;48.834;9.132;2023-11-21T15:04:46;1.48;;;1.08;;
15693;SDS011;7947;48.834;9.132;2023-11-21T15:07:49;3.00;;;1.10;;
15693;SDS011;7947;48.834;9.132;2023-11-21T15:10:53;1.07;;;0.80;;
15693;SDS011;7947;48.834;9.132;2023-11-21T15:13:58;1.27;;;1.00;;
15693;SDS011;7947;48.834;9.132;2023-11-21T15:17:01;2.40;;;1.23;;
15693;SDS011;7947;48.834;9.132;2023-11-21T15:20:05;1.67;;;1.17;;
15693;SDS011;7947;48.834;9.132;2023-11-21T15:23:10;1.37;;;1.20;;
15693;SDS011;7947;48.834;9.132;2023-11-21T15:26:14;1.93;;;1.30;;
15693;SDS011;7947;48.834;9.132;2023-11-21T15:29:19;1.10;;;1.00;;
15693;SDS011;7947;48.834;9.132;2023-11-21T15:32:23;1.87;;;1.37;;
15693;SDS011;7947;48.834;9.132;2023-11-21T15:35:27;2.17;;;1.67;;
15693;SDS011;7947;48.834;9.132;2023-11-21T15:38:30;2.33;;;1.43;;
15693;SDS011;7947;48.834;9.132;2023-11-21T15:41:33;1.77;;;1.67;;
15693;SDS011;7947;48.834;9.132;2023-11-21T15:44:37;2.67;;;1.83;;
15693;SDS011;7947;48.834;9.132;2023-11-21T15:47:41;1.80;;;1.50;;
15693;SDS011;7947;48.834;9.132;2023-11-21T15:50:44;1.50;;;1.40;;
15693;SDS011;7947;48.834;9.132;2023-11-21T15:53:48;2.00;;;1.50;;
15693;SDS011;7947;48.834;9.132;2023-11-21T15:56:51;1.90;;;1.70;;
15693;SDS011;7947;48.834;9.132;2023-11-21T15:59:58;3.47;;;1.87;;
15693;SDS011;7947;48.834;9.132;2023-11-21T16:03:01;1.87;;;1.73;;
15693;SDS011;7947;48.834;9.132;2023-11-21T16:06:04;2.37;;;2.07;;
15693;SDS011;7947;48.834;9.132;2023-11-21T16:09:11;2.60;;;2.07;;
15693;SDS011;7947;48.834;9.132;2023-11-21T16:12:23;4.00;;;1.80;;
15693;SDS011;7947;48.834;9.132;2023-11-21T16:15:27;4.20;;;2.63;;
15693;SDS011;7947;48.834;9.132;2023-11-21T16:18:30;5.07;;;2.27;;
15693;SDS011;7947;48.834;9.132;2023-11-21T16:21:33;2.77;;;1.90;;
15693;SDS011;7947;48.834;9.132;2023-11-21T16:24:36;2.33;;;1.97;;
15693;SDS011;7947;48.834;9.132;2023-11-21T16:27:40;2.27;;;1.87;;
15693;SDS011;7947;48.834;9.132;2023-11-21T16:30:45;2.83;;;1.63;;
15693;SDS011;7947;48.834;9.132;2023-11-21T16:33:48;2.10;;;1.80;;
15693;SDS011;7947;48.834;9.132;2023-11-21T16:36:51;2.30;;;1.60;;
15693;SDS011;7947;48.834;9.132;2023-11-21T16:39:54;3.97;;;1.80;;
15693;SDS011;7947;48.834;9.132;2023-11-21T16:42:56;2.10;;;1.67;;
15693;SDS011;7947;48.834;9.132;2023-11-21T16:46:01;1.73;;;1.50;;
15693;SDS011;7947;48.834;9.132;2023-11-21T16:49:04;1.90;;;1.67;;
15693;SDS011;7947;48.834;9.132;2023-11-21T16:52:07;2.30;;;1.90;;
15693;SDS011;7947;48.834;9.132;2023-11-21T16:55:09;3.97;;;1.90;;
15693;SDS011;7947;48.834;9.132;2023-11-21T16:58:13;2.33;;;2.00;;
15693;SDS011;7947;48.834;9.132;2023-11-21T17:01:18;2.10;;;1.83;;
15693;SDS011;7947;48.834;9.132;2023-11-21T17:04:21;2.57;;;1.80;;
15693;SDS011;7947;48.834;9.132;2023-11-21T17:07:24;2.47;;;1.97;;
15693;SDS011;7947;48.834;9.132;2023-11-21T17:10:28;2.10;;;1.80;;
15693;SDS011;7947;48.834;9.132;2023-11-21T17:13:31;4.00;;;1.90;;
15693;SDS011;7947;48.834;9.132;2023-11-21T17:16:35;5.03;;;2.37;;
15693;SDS011;7947;48.834;9.132;2023-11-21T17:19:38;3.27;;;2.17;;
15693;SDS011;7947;48.834;9.132;2023-11-21T17:22:45;3.77;;;2.63;;
15693;SDS011;7947;48.834;9.132;2023-11-21T17:25:47;3.47;;;2.23;;
15693;SDS011;7947;48.834;9.132;2023-11-21T17:28:50;3.17;;;2.20;;
15693;SDS011;7947;48.834;9.132;2023-11-21T17:31:56;4.83;;;2.47;;
15693;SDS011;7947;48.834;9.132;2023-11-21T17:34:59;4.43;;;3.00;;
15693;SDS011;7947;48.834;9.132;2023-11-21T17:38:02;4.67;;;3.13;;
15693;SDS011;7947;48.834;9.132;2023-11-21T17:41:06;4.50;;;3.47;;
15693;SDS011;7947;48.834;9.132;2023-11-21T17:44:12;6.93;;;4.63;;
15693;SDS011;7947;48.834;9.132;2023-11-21T17:47:16;6.37;;;4.67;;
15693;SDS011;7947;48.834;9.132;2023-11-21T17:50:20;6.17;;;5.03;;
15693;SDS011;7947;48.834;9.132;2023-11-21T17:53:23;6.17;;;4.53;;
15693;SDS011;7947;48.834;9.132;2023-11-21T17:56:26;5.67;;;4.40;;
15693;SDS011;7947;48.834;9.132;2023-11-21T17:59:30;5.50;;;4.50;;
15693;SDS011;7947;48.834;9.132;2023-11-21T18:02:34;5.50;;;3.90;;
15693;SDS011;7947;48.834;9.132;2023-11-21T18:05:39;5.90;;;4.53;;
15693;SDS011;7947;48.834;9.132;2023-11-21T18:08:41;5.63;;;3.87;;
15693;SDS011;7947;48.834;9.132;2023-11-21T18:11:44;5.33;;;3.90;;
15693;SDS011;7947;48.834;9.132;2023-11-21T18:14:47;4.83;;;3.73;;
15693;SDS011;7947;48.834;9.132;2023-11-21T18:17:54;5.53;;;3.73;;
15693;SDS011;7947;48.834;9.132;2023-11-21T18:20:57;5.63;;;3.97;;
15693;SDS011;7947;48.834;9.132;2023-11-21T18:24:00;6.30;;;3.43;;
15693;SDS011;7947;48.834;9.132;2023-11-21T18:27:04;5.83;;;3.80;;
15693;SDS011;7947;48.834;9.132;2023-11-21T18:30:08;6.13;;;4.20;;
15693;SDS011;7947;48.834;9.132;2023-11-21T18:33:13;4.60;;;4.07;;
15693;SDS011;7947;48.834;9.132;2023-11-21T18:36:16;5.37;;;4.20;;
15693;SDS011;7947;48.834;9.132;2023-11-21T18:39:18;4.50;;;3.57;;
15693;SDS011;7947;48.834;9.132;2023-11-21T18:42:21;5.20;;;3.53;;
15693;SDS011;7947;48.834;9.132;2023-11-21T18:45:25;6.00;;;3.90;;
15693;SDS011;7947;48.834;9.132;2023-11-21T18:48:29;4.37;;;3.27;;
15693;SDS011;7947;48.834;9.132;2023-11-21T18:51:32;4.37;;;3.10;;